sensor_id;sensor_type;location;lat;lon;timestamp;P1;durP1;ratioP1;P2;durP2;ratioP2
4313;SDS011;2170;48.794;9.182;2023-04-06T00:01:28;12.53;;;9.73;;
4313;SDS011;2170;48.794;9.182;2023-04-06T00:04:04;11.40;;;10.20;;
4313;SDS011;2170;48.794;9.182;2023-04-06T00:06:47;10.40;;;9.40;;
4313;SDS011;2170;48.794;9.182;2023-04-06T00:09:28;11.07;;;10.00;;
4313;SDS011;2170;48.794;9.182;2023-04-06T00:12:07;16.23;;;10.90;;
4313;SDS011;2170;48.794;9.182;2023-04-06T00:14:35;11.80;;;10.37;;
4313;SDS011;2170;48.794;9.182;2023-04-06T00:17:07;12.10;;;10.77;;
4313;SDS011;2170;48.794;9.182;2023-04-06T00:20:00;12.57;;;11.00;;
4313;SDS011;2170;48.794;9.182;2023-04-06T00:22:44;11.77;;;10.57;;
4313;SDS011;2170;48.794;9.182;2023-04-06T00:28:34;13.40;;;11.10;;
4313;SDS011;2170;48.794;9.182;2023-04-06T00:31:24;14.63;;;13.10;;
4313;SDS011;2170;48.794;9.182;2023-04-06T00:34:25;12.77;;;11.40;;
4313;SDS011;2170;48.794;9.182;2023-04-06T00:40:06;13.83;;;11.20;;
4313;SDS011;2170;48.794;9.182;2023-04-06T00:42:46;14.93;;;13.00;;
4313;SDS011;2170;48.794;9.182;2023-04-06T00:45:40;17.20;;;12.77;;
4313;SDS011;2170;48.794;9.182;2023-04-06T00:48:29;16.30;;;13.00;;
4313;SDS011;2170;48.794;9.182;2023-04-06T00:51:16;13.80;;;12.60;;
4313;SDS011;2170;48.794;9.182;2023-04-06T00:53:45;15.10;;;13.50;;
4313;SDS011;2170;48.794;9.182;2023-04-06T00:56:23;16.43;;;12.70;;
4313;SDS011;2170;48.794;9.182;2023-04-06T00:59:05;15.30;;;11.90;;
4313;SDS011;2170;48.794;9.182;2023-04-06T01:01:49;15.60;;;13.30;;
4313;SDS011;2170;48.794;9.182;2023-04-06T01:04:32;12.87;;;11.50;;
4313;SDS011;2170;48.794;9.182;2023-04-06T01:07:17;18.00;;;13.17;;
4313;SDS011;2170;48.794;9.182;2023-04-06T01:09:52;16.63;;;13.00;;
4313;SDS011;2170;48.794;9.182;2023-04-06T01:12:35;14.33;;;12.90;;
4313;SDS011;2170;48.794;9.182;2023-04-06T01:15:51;14.40;;;12.90;;
4313;SDS011;2170;48.794;9.182;2023-04-06T01:18:42;13.80;;;12.40;;
4313;SDS011;2170;48.794;9.182;2023-04-06T01:27:17;14.50;;;12.63;;
4313;SDS011;2170;48.794;9.182;2023-04-06T01:29:52;16.37;;;12.87;;
4313;SDS011;2170;48.794;9.182;2023-04-06T01:32:38;15.50;;;13.80;;
4313;SDS011;2170;48.794;9.182;2023-04-06T01:35:33;15.17;;;13.53;;
4313;SDS011;2170;48.794;9.182;2023-04-06T01:41:07;15.40;;;13.90;;
4313;SDS011;2170;48.794;9.182;2023-04-06T01:43:47;17.03;;;15.23;;
4313;SDS011;2170;48.794;9.182;2023-04-06T01:49:28;18.63;;;14.80;;
4313;SDS011;2170;48.794;9.182;2023-04-06T01:52:04;18.90;;;16.00;;
4313;SDS011;2170;48.794;9.182;2023-04-06T01:54:42;16.50;;;14.80;;
4313;SDS011;2170;48.794;9.182;2023-04-06T01:57:36;16.30;;;14.70;;
4313;SDS011;2170;48.794;9.182;2023-04-06T02:00:16;17.13;;;15.10;;
4313;SDS011;2170;48.794;9.182;2023-04-06T02:02:59;16.53;;;14.60;;
4313;SDS011;2170;48.794;9.182;2023-04-06T02:05:43;16.50;;;14.57;;
4313;SDS011;2170;48.794;9.182;2023-04-06T02:08:27;19.63;;;15.07;;
4313;SDS011;2170;48.794;9.182;2023-04-06T02:11:06;15.20;;;13.70;;
4313;SDS011;2170;48.794;9.182;2023-04-06T02:13:37;16.70;;;14.90;;
4313;SDS011;2170;48.794;9.182;2023-04-06T02:19:13;17.47;;;15.50;;
4313;SDS011;2170;48.794;9.182;2023-04-06T02:22:05;17.60;;;14.90;;
4313;SDS011;2170;48.794;9.182;2023-04-06T02:24:45;18.07;;;15.33;;
4313;SDS011;2170;48.794;9.182;2023-04-06T02:30:11;18.93;;;15.83;;
4313;SDS011;2170;48.794;9.182;2023-04-06T02:32:45;16.93;;;15.20;;
4313;SDS011;2170;48.794;9.182;2023-04-06T02:38:19;18.30;;;14.90;;
4313;SDS011;2170;48.794;9.182;2023-04-06T02:41:11;18.10;;;15.20;;
4313;SDS011;2170;48.794;9.182;2023-04-06T02:43:57;17.30;;;15.23;;
4313;SDS011;2170;48.794;9.182;2023-04-06T02:49:40;18.00;;;15.27;;
4313;SDS011;2170;48.794;9.182;2023-04-06T02:58:11;17.43;;;15.13;;
4313;SDS011;2170;48.794;9.182;2023-04-06T03:01:09;18.60;;;16.50;;
4313;SDS011;2170;48.794;9.182;2023-04-06T03:03:55;16.63;;;14.60;;
4313;SDS011;2170;48.794;9.182;2023-04-06T03:06:32;16.60;;;14.90;;
4313;SDS011;2170;48.794;9.182;2023-04-06T03:09:07;17.70;;;15.80;;
4313;SDS011;2170;48.794;9.182;2023-04-06T03:11:39;19.40;;;16.27;;
4313;SDS011;2170;48.794;9.182;2023-04-06T03:14:21;17.63;;;15.67;;
4313;SDS011;2170;48.794;9.182;2023-04-06T03:16:58;16.50;;;14.80;;
4313;SDS011;2170;48.794;9.182;2023-04-06T03:19:46;17.27;;;15.57;;
4313;SDS011;2170;48.794;9.182;2023-04-06T03:22:31;20.87;;;15.00;;
4313;SDS011;2170;48.794;9.182;2023-04-06T03:25:23;16.37;;;14.83;;
4313;SDS011;2170;48.794;9.182;2023-04-06T03:28:12;18.87;;;15.10;;
4313;SDS011;2170;48.794;9.182;2023-04-06T03:30:58;18.10;;;16.20;;
4313;SDS011;2170;48.794;9.182;2023-04-06T03:33:45;16.27;;;14.33;;
4313;SDS011;2170;48.794;9.182;2023-04-06T03:36:30;17.30;;;15.30;;
4313;SDS011;2170;48.794;9.182;2023-04-06T03:39:17;17.47;;;15.27;;
4313;SDS011;2170;48.794;9.182;2023-04-06T03:41:56;18.33;;;16.20;;
4313;SDS011;2170;48.794;9.182;2023-04-06T03:44:28;16.70;;;15.00;;
4313;SDS011;2170;48.794;9.182;2023-04-06T03:47:05;17.47;;;15.60;;
4313;SDS011;2170;48.794;9.182;2023-04-06T03:49:48;17.50;;;15.70;;
4313;SDS011;2170;48.794;9.182;2023-04-06T03:52:29;17.90;;;15.07;;
4313;SDS011;2170;48.794;9.182;2023-04-06T03:55:06;18.07;;;15.90;;
4313;SDS011;2170;48.794;9.182;2023-04-06T03:57:52;19.20;;;16.43;;
4313;SDS011;2170;48.794;9.182;2023-04-06T04:00:22;21.03;;;16.00;;
4313;SDS011;2170;48.794;9.182;2023-04-06T04:03:05;17.27;;;14.90;;
4313;SDS011;2170;48.794;9.182;2023-04-06T04:05:44;22.13;;;17.27;;
4313;SDS011;2170;48.794;9.182;2023-04-06T04:08:23;19.13;;;16.13;;
4313;SDS011;2170;48.794;9.182;2023-04-06T04:11:00;24.73;;;17.67;;
4313;SDS011;2170;48.794;9.182;2023-04-06T04:13:36;17.97;;;14.80;;
4313;SDS011;2170;48.794;9.182;2023-04-06T04:16:09;19.03;;;16.90;;
4313;SDS011;2170;48.794;9.182;2023-04-06T04:18:56;17.60;;;15.20;;
4313;SDS011;2170;48.794;9.182;2023-04-06T04:21:48;20.13;;;15.13;;
4313;SDS011;2170;48.794;9.182;2023-04-06T04:24:20;21.27;;;16.10;;
4313;SDS011;2170;48.794;9.182;2023-04-06T04:26:52;16.33;;;14.70;;
4313;SDS011;2170;48.794;9.182;2023-04-06T04:30:02;21.07;;;18.20;;
4313;SDS011;2170;48.794;9.182;2023-04-06T04:32:27;21.80;;;16.87;;
4313;SDS011;2170;48.794;9.182;2023-04-06T04:35:03;17.23;;;15.50;;
4313;SDS011;2170;48.794;9.182;2023-04-06T04:37:44;17.70;;;15.50;;
4313;SDS011;2170;48.794;9.182;2023-04-06T04:40:14;21.00;;;16.43;;
4313;SDS011;2170;48.794;9.182;2023-04-06T04:42:50;17.40;;;15.50;;
4313;SDS011;2170;48.794;9.182;2023-04-06T04:45:37;22.57;;;16.33;;
4313;SDS011;2170;48.794;9.182;2023-04-06T04:48:31;19.67;;;16.17;;
4313;SDS011;2170;48.794;9.182;2023-04-06T04:51:21;19.30;;;15.90;;
4313;SDS011;2170;48.794;9.182;2023-04-06T04:53:56;17.17;;;15.37;;
4313;SDS011;2170;48.794;9.182;2023-04-06T04:56:41;17.27;;;15.57;;
4313;SDS011;2170;48.794;9.182;2023-04-06T04:59:37;18.33;;;15.43;;
4313;SDS011;2170;48.794;9.182;2023-04-06T05:02:16;20.53;;;16.30;;
4313;SDS011;2170;48.794;9.182;2023-04-06T05:05:04;19.33;;;17.33;;
4313;SDS011;2170;48.794;9.182;2023-04-06T05:10:57;21.13;;;16.77;;
4313;SDS011;2170;48.794;9.182;2023-04-06T05:13:38;20.53;;;17.10;;
4313;SDS011;2170;48.794;9.182;2023-04-06T05:16:08;22.83;;;17.87;;
4313;SDS011;2170;48.794;9.182;2023-04-06T05:18:36;19.10;;;16.33;;
4313;SDS011;2170;48.794;9.182;2023-04-06T05:21:14;19.50;;;16.77;;
4313;SDS011;2170;48.794;9.182;2023-04-06T05:23:43;21.13;;;17.33;;
4313;SDS011;2170;48.794;9.182;2023-04-06T05:29:26;17.63;;;15.80;;
4313;SDS011;2170;48.794;9.182;2023-04-06T05:32:02;21.17;;;16.57;;
4313;SDS011;2170;48.794;9.182;2023-04-06T05:34:42;19.57;;;16.97;;
4313;SDS011;2170;48.794;9.182;2023-04-06T05:37:29;18.40;;;16.50;;
4313;SDS011;2170;48.794;9.182;2023-04-06T05:40:00;20.13;;;16.30;;
4313;SDS011;2170;48.794;9.182;2023-04-06T05:42:37;18.80;;;16.87;;
4313;SDS011;2170;48.794;9.182;2023-04-06T05:45:12;19.37;;;16.40;;
4313;SDS011;2170;48.794;9.182;2023-04-06T05:47:45;18.37;;;15.50;;
4313;SDS011;2170;48.794;9.182;2023-04-06T05:50:26;19.57;;;17.23;;
4313;SDS011;2170;48.794;9.182;2023-04-06T05:53:04;25.47;;;17.00;;
4313;SDS011;2170;48.794;9.182;2023-04-06T05:55:44;20.60;;;16.40;;
4313;SDS011;2170;48.794;9.182;2023-04-06T05:58:20;22.63;;;16.80;;
4313;SDS011;2170;48.794;9.182;2023-04-06T06:01:14;22.30;;;16.30;;
4313;SDS011;2170;48.794;9.182;2023-04-06T06:04:02;18.73;;;16.80;;
4313;SDS011;2170;48.794;9.182;2023-04-06T06:06:36;20.47;;;16.27;;
4313;SDS011;2170;48.794;9.182;2023-04-06T06:09:13;21.73;;;16.10;;
4313;SDS011;2170;48.794;9.182;2023-04-06T06:11:56;26.80;;;21.23;;
4313;SDS011;2170;48.794;9.182;2023-04-06T06:14:27;29.80;;;22.40;;
4313;SDS011;2170;48.794;9.182;2023-04-06T06:17:12;28.10;;;20.50;;
4313;SDS011;2170;48.794;9.182;2023-04-06T06:19:48;21.73;;;16.93;;
4313;SDS011;2170;48.794;9.182;2023-04-06T06:22:20;20.07;;;16.20;;
4313;SDS011;2170;48.794;9.182;2023-04-06T06:25:03;16.93;;;15.13;;
4313;SDS011;2170;48.794;9.182;2023-04-06T06:27:41;19.63;;;16.33;;
4313;SDS011;2170;48.794;9.182;2023-04-06T06:30:16;21.33;;;16.80;;
4313;SDS011;2170;48.794;9.182;2023-04-06T06:32:50;17.33;;;15.20;;
4313;SDS011;2170;48.794;9.182;2023-04-06T06:35:22;17.03;;;15.20;;
4313;SDS011;2170;48.794;9.182;2023-04-06T06:37:50;16.87;;;15.13;;
4313;SDS011;2170;48.794;9.182;2023-04-06T06:40:31;16.70;;;14.90;;
4313;SDS011;2170;48.794;9.182;2023-04-06T06:43:11;21.10;;;15.47;;
4313;SDS011;2170;48.794;9.182;2023-04-06T06:45:54;16.87;;;15.17;;
4313;SDS011;2170;48.794;9.182;2023-04-06T06:48:30;18.50;;;15.77;;
4313;SDS011;2170;48.794;9.182;2023-04-06T06:51:30;17.27;;;15.47;;
4313;SDS011;2170;48.794;9.182;2023-04-06T06:54:03;17.23;;;15.53;;
4313;SDS011;2170;48.794;9.182;2023-04-06T06:56:39;15.97;;;14.03;;
4313;SDS011;2170;48.794;9.182;2023-04-06T06:59:18;16.83;;;15.07;;
4313;SDS011;2170;48.794;9.182;2023-04-06T07:01:55;18.10;;;15.90;;
4313;SDS011;2170;48.794;9.182;2023-04-06T07:07:31;16.83;;;15.13;;
4313;SDS011;2170;48.794;9.182;2023-04-06T07:10:13;17.73;;;15.83;;
4313;SDS011;2170;48.794;9.182;2023-04-06T07:13:05;19.13;;;17.10;;
4313;SDS011;2170;48.794;9.182;2023-04-06T07:15:50;17.93;;;16.10;;
4313;SDS011;2170;48.794;9.182;2023-04-06T07:18:29;17.80;;;16.00;;
4313;SDS011;2170;48.794;9.182;2023-04-06T07:21:04;19.50;;;16.33;;
4313;SDS011;2170;48.794;9.182;2023-04-06T07:23:38;18.63;;;16.17;;
4313;SDS011;2170;48.794;9.182;2023-04-06T07:27:01;20.13;;;16.30;;
4313;SDS011;2170;48.794;9.182;2023-04-06T07:29:27;17.60;;;15.80;;
4313;SDS011;2170;48.794;9.182;2023-04-06T07:32:14;17.83;;;16.23;;
4313;SDS011;2170;48.794;9.182;2023-04-06T07:34:57;17.40;;;15.60;;
4313;SDS011;2170;48.794;9.182;2023-04-06T07:37:47;17.07;;;15.27;;
4313;SDS011;2170;48.794;9.182;2023-04-06T07:52:32;18.17;;;16.23;;
4313;SDS011;2170;48.794;9.182;2023-04-06T08:08:03;20.00;;;17.13;;
4313;SDS011;2170;48.794;9.182;2023-04-06T08:10:36;18.80;;;16.80;;
4313;SDS011;2170;48.794;9.182;2023-04-06T08:13:22;19.03;;;16.97;;
4313;SDS011;2170;48.794;9.182;2023-04-06T08:16:02;17.90;;;16.00;;
4313;SDS011;2170;48.794;9.182;2023-04-06T08:18:35;19.00;;;17.10;;
4313;SDS011;2170;48.794;9.182;2023-04-06T08:21:06;17.63;;;15.83;;
4313;SDS011;2170;48.794;9.182;2023-04-06T08:23:41;19.53;;;16.17;;
4313;SDS011;2170;48.794;9.182;2023-04-06T08:26:16;18.40;;;16.40;;
4313;SDS011;2170;48.794;9.182;2023-04-06T08:28:52;18.90;;;15.80;;
4313;SDS011;2170;48.794;9.182;2023-04-06T08:31:22;20.70;;;16.60;;
4313;SDS011;2170;48.794;9.182;2023-04-06T08:33:53;17.43;;;15.60;;
4313;SDS011;2170;48.794;9.182;2023-04-06T08:36:35;18.50;;;15.97;;
4313;SDS011;2170;48.794;9.182;2023-04-06T08:41:54;18.90;;;16.90;;
4313;SDS011;2170;48.794;9.182;2023-04-06T08:44:24;17.30;;;15.50;;
4313;SDS011;2170;48.794;9.182;2023-04-06T08:47:53;20.17;;;17.10;;
4313;SDS011;2170;48.794;9.182;2023-04-06T08:50:20;22.60;;;16.57;;
4313;SDS011;2170;48.794;9.182;2023-04-06T08:52:48;18.10;;;16.27;;
4313;SDS011;2170;48.794;9.182;2023-04-06T08:55:18;17.63;;;15.63;;
4313;SDS011;2170;48.794;9.182;2023-04-06T08:57:49;17.77;;;15.87;;
4313;SDS011;2170;48.794;9.182;2023-04-06T09:03:08;17.60;;;15.90;;
4313;SDS011;2170;48.794;9.182;2023-04-06T09:05:38;17.13;;;14.87;;
4313;SDS011;2170;48.794;9.182;2023-04-06T09:08:16;17.47;;;15.77;;
4313;SDS011;2170;48.794;9.182;2023-04-06T09:10:49;14.53;;;13.20;;
4313;SDS011;2170;48.794;9.182;2023-04-06T09:13:22;15.43;;;14.00;;
4313;SDS011;2170;48.794;9.182;2023-04-06T09:15:58;14.27;;;12.67;;
4313;SDS011;2170;48.794;9.182;2023-04-06T09:18:30;16.20;;;13.87;;
4313;SDS011;2170;48.794;9.182;2023-04-06T09:21:02;16.83;;;14.30;;
4313;SDS011;2170;48.794;9.182;2023-04-06T09:23:31;14.23;;;12.73;;
4313;SDS011;2170;48.794;9.182;2023-04-06T09:26:14;15.20;;;13.80;;
4313;SDS011;2170;48.794;9.182;2023-04-06T09:29:21;14.17;;;12.83;;
4313;SDS011;2170;48.794;9.182;2023-04-06T09:31:51;13.50;;;12.20;;
4313;SDS011;2170;48.794;9.182;2023-04-06T09:34:37;16.10;;;13.70;;
4313;SDS011;2170;48.794;9.182;2023-04-06T09:37:19;15.10;;;13.50;;
4313;SDS011;2170;48.794;9.182;2023-04-06T09:40:01;14.23;;;12.83;;
4313;SDS011;2170;48.794;9.182;2023-04-06T09:42:42;13.63;;;12.33;;
4313;SDS011;2170;48.794;9.182;2023-04-06T09:45:21;16.13;;;12.53;;
4313;SDS011;2170;48.794;9.182;2023-04-06T09:47:53;12.57;;;11.23;;
4313;SDS011;2170;48.794;9.182;2023-04-06T09:50:25;11.93;;;10.77;;
4313;SDS011;2170;48.794;9.182;2023-04-06T09:52:54;15.10;;;12.10;;
4313;SDS011;2170;48.794;9.182;2023-04-06T09:55:30;14.20;;;12.10;;
4313;SDS011;2170;48.794;9.182;2023-04-06T09:58:05;12.67;;;11.47;;
4313;SDS011;2170;48.794;9.182;2023-04-06T10:00:40;12.57;;;11.27;;
4313;SDS011;2170;48.794;9.182;2023-04-06T10:03:14;13.53;;;12.13;;
4313;SDS011;2170;48.794;9.182;2023-04-06T10:05:52;11.57;;;10.57;;
4313;SDS011;2170;48.794;9.182;2023-04-06T10:08:26;12.20;;;11.00;;
4313;SDS011;2170;48.794;9.182;2023-04-06T10:11:00;11.70;;;10.60;;
4313;SDS011;2170;48.794;9.182;2023-04-06T10:13:31;11.27;;;10.10;;
4313;SDS011;2170;48.794;9.182;2023-04-06T10:16:04;12.50;;;11.10;;
4313;SDS011;2170;48.794;9.182;2023-04-06T10:18:36;12.60;;;11.40;;
4313;SDS011;2170;48.794;9.182;2023-04-06T10:21:08;11.63;;;10.60;;
4313;SDS011;2170;48.794;9.182;2023-04-06T10:23:39;11.17;;;10.27;;
4313;SDS011;2170;48.794;9.182;2023-04-06T10:26:12;10.03;;;9.23;;
4313;SDS011;2170;48.794;9.182;2023-04-06T10:28:46;10.53;;;9.50;;
4313;SDS011;2170;48.794;9.182;2023-04-06T10:31:23;10.60;;;9.67;;
4313;SDS011;2170;48.794;9.182;2023-04-06T10:33:56;12.57;;;10.27;;
4313;SDS011;2170;48.794;9.182;2023-04-06T10:36:32;10.90;;;9.93;;
4313;SDS011;2170;48.794;9.182;2023-04-06T10:39:06;11.90;;;10.90;;
4313;SDS011;2170;48.794;9.182;2023-04-06T10:41:48;11.47;;;10.43;;
4313;SDS011;2170;48.794;9.182;2023-04-06T10:44:23;10.37;;;9.47;;
4313;SDS011;2170;48.794;9.182;2023-04-06T10:46:56;10.53;;;9.63;;
4313;SDS011;2170;48.794;9.182;2023-04-06T10:49:34;11.53;;;10.43;;
4313;SDS011;2170;48.794;9.182;2023-04-06T10:52:12;11.53;;;10.33;;
4313;SDS011;2170;48.794;9.182;2023-04-06T10:54:42;10.73;;;9.73;;
4313;SDS011;2170;48.794;9.182;2023-04-06T10:57:13;10.60;;;9.50;;
4313;SDS011;2170;48.794;9.182;2023-04-06T10:59:43;10.20;;;9.20;;
4313;SDS011;2170;48.794;9.182;2023-04-06T11:02:40;11.33;;;9.20;;
4313;SDS011;2170;48.794;9.182;2023-04-06T11:05:25;10.00;;;9.13;;
4313;SDS011;2170;48.794;9.182;2023-04-06T11:08:08;10.67;;;9.57;;
4313;SDS011;2170;48.794;9.182;2023-04-06T11:13:25;9.97;;;9.07;;
4313;SDS011;2170;48.794;9.182;2023-04-06T11:16:17;9.77;;;8.77;;
4313;SDS011;2170;48.794;9.182;2023-04-06T11:25:13;9.60;;;8.67;;
4313;SDS011;2170;48.794;9.182;2023-04-06T11:27:53;10.33;;;9.43;;
4313;SDS011;2170;48.794;9.182;2023-04-06T11:31:23;10.20;;;8.90;;
4313;SDS011;2170;48.794;9.182;2023-04-06T11:33:31;9.70;;;8.73;;
4313;SDS011;2170;48.794;9.182;2023-04-06T11:36:38;10.53;;;9.37;;
4313;SDS011;2170;48.794;9.182;2023-04-06T11:42:20;9.13;;;8.33;;
4313;SDS011;2170;48.794;9.182;2023-04-06T11:45:06;10.50;;;8.33;;
4313;SDS011;2170;48.794;9.182;2023-04-06T11:47:54;9.43;;;8.50;;
4313;SDS011;2170;48.794;9.182;2023-04-06T11:50:31;10.30;;;9.30;;
4313;SDS011;2170;48.794;9.182;2023-04-06T11:53:10;8.73;;;7.93;;
4313;SDS011;2170;48.794;9.182;2023-04-06T11:55:46;9.17;;;8.47;;
4313;SDS011;2170;48.794;9.182;2023-04-06T11:58:18;9.33;;;8.37;;
4313;SDS011;2170;48.794;9.182;2023-04-06T12:00:50;10.40;;;9.50;;
4313;SDS011;2170;48.794;9.182;2023-04-06T12:03:20;9.33;;;8.50;;
4313;SDS011;2170;48.794;9.182;2023-04-06T12:05:53;9.73;;;8.47;;
4313;SDS011;2170;48.794;9.182;2023-04-06T12:08:24;9.37;;;8.57;;
4313;SDS011;2170;48.794;9.182;2023-04-06T12:11:00;10.07;;;8.97;;
4313;SDS011;2170;48.794;9.182;2023-04-06T12:13:30;8.93;;;8.03;;
4313;SDS011;2170;48.794;9.182;2023-04-06T12:16:07;10.30;;;9.40;;
4313;SDS011;2170;48.794;9.182;2023-04-06T12:18:38;9.40;;;8.43;;
4313;SDS011;2170;48.794;9.182;2023-04-06T12:21:28;10.30;;;8.40;;
4313;SDS011;2170;48.794;9.182;2023-04-06T12:24:17;8.63;;;7.93;;
4313;SDS011;2170;48.794;9.182;2023-04-06T12:27:04;9.43;;;8.53;;
4313;SDS011;2170;48.794;9.182;2023-04-06T12:29:34;8.07;;;7.47;;
4313;SDS011;2170;48.794;9.182;2023-04-06T12:32:14;9.10;;;8.30;;
4313;SDS011;2170;48.794;9.182;2023-04-06T12:34:47;9.03;;;7.97;;
4313;SDS011;2170;48.794;9.182;2023-04-06T12:37:19;9.50;;;8.70;;
4313;SDS011;2170;48.794;9.182;2023-04-06T12:40:03;9.40;;;8.13;;
4313;SDS011;2170;48.794;9.182;2023-04-06T12:42:46;9.17;;;8.37;;
4313;SDS011;2170;48.794;9.182;2023-04-06T12:45:16;7.67;;;7.07;;
4313;SDS011;2170;48.794;9.182;2023-04-06T12:47:51;8.53;;;7.73;;
4313;SDS011;2170;48.794;9.182;2023-04-06T12:50:22;8.80;;;8.07;;
4313;SDS011;2170;48.794;9.182;2023-04-06T12:53:02;9.10;;;8.20;;
4313;SDS011;2170;48.794;9.182;2023-04-06T12:55:44;8.67;;;7.87;;
4313;SDS011;2170;48.794;9.182;2023-04-06T12:58:26;8.80;;;7.90;;
4313;SDS011;2170;48.794;9.182;2023-04-06T13:00:58;9.60;;;8.80;;
4313;SDS011;2170;48.794;9.182;2023-04-06T13:03:44;8.00;;;7.20;;
4313;SDS011;2170;48.794;9.182;2023-04-06T13:06:15;9.33;;;8.63;;
4313;SDS011;2170;48.794;9.182;2023-04-06T13:08:43;8.90;;;8.10;;
4313;SDS011;2170;48.794;9.182;2023-04-06T13:11:17;9.10;;;8.30;;
4313;SDS011;2170;48.794;9.182;2023-04-06T13:14:03;8.37;;;7.53;;
4313;SDS011;2170;48.794;9.182;2023-04-06T13:16:50;8.13;;;7.47;;
4313;SDS011;2170;48.794;9.182;2023-04-06T13:19:25;9.67;;;8.67;;
4313;SDS011;2170;48.794;9.182;2023-04-06T13:21:58;8.97;;;8.20;;
4313;SDS011;2170;48.794;9.182;2023-04-06T13:24:26;9.80;;;8.80;;
4313;SDS011;2170;48.794;9.182;2023-04-06T13:27:09;7.63;;;6.93;;
4313;SDS011;2170;48.794;9.182;2023-04-06T13:29:50;7.67;;;6.80;;
4313;SDS011;2170;48.794;9.182;2023-04-06T13:32:21;8.87;;;8.07;;
4313;SDS011;2170;48.794;9.182;2023-04-06T13:34:55;7.90;;;7.10;;
4313;SDS011;2170;48.794;9.182;2023-04-06T13:37:32;8.30;;;7.60;;
4313;SDS011;2170;48.794;9.182;2023-04-06T13:39:59;9.07;;;8.27;;
4313;SDS011;2170;48.794;9.182;2023-04-06T13:42:29;8.00;;;7.30;;
4313;SDS011;2170;48.794;9.182;2023-04-06T13:44:58;8.93;;;8.13;;
4313;SDS011;2170;48.794;9.182;2023-04-06T13:47:26;8.27;;;7.57;;
4313;SDS011;2170;48.794;9.182;2023-04-06T13:49:54;8.83;;;8.03;;
4313;SDS011;2170;48.794;9.182;2023-04-06T13:52:28;8.53;;;7.83;;
4313;SDS011;2170;48.794;9.182;2023-04-06T13:54:56;7.90;;;7.20;;
4313;SDS011;2170;48.794;9.182;2023-04-06T13:57:27;8.67;;;7.77;;
4313;SDS011;2170;48.794;9.182;2023-04-06T13:59:55;8.90;;;8.10;;
4313;SDS011;2170;48.794;9.182;2023-04-06T14:02:24;9.20;;;8.20;;
4313;SDS011;2170;48.794;9.182;2023-04-06T14:04:54;8.50;;;7.67;;
4313;SDS011;2170;48.794;9.182;2023-04-06T14:07:22;8.10;;;7.40;;
4313;SDS011;2170;48.794;9.182;2023-04-06T14:09:53;8.20;;;7.40;;
4313;SDS011;2170;48.794;9.182;2023-04-06T14:12:29;9.93;;;8.37;;
4313;SDS011;2170;48.794;9.182;2023-04-06T14:15:02;9.43;;;8.47;;
4313;SDS011;2170;48.794;9.182;2023-04-06T14:17:31;8.47;;;7.77;;
4313;SDS011;2170;48.794;9.182;2023-04-06T14:20:00;8.63;;;7.93;;
4313;SDS011;2170;48.794;9.182;2023-04-06T14:22:30;8.63;;;7.93;;
4313;SDS011;2170;48.794;9.182;2023-04-06T14:24:58;9.30;;;8.40;;
4313;SDS011;2170;48.794;9.182;2023-04-06T14:27:26;8.73;;;7.93;;
4313;SDS011;2170;48.794;9.182;2023-04-06T14:29:54;8.50;;;7.70;;
4313;SDS011;2170;48.794;9.182;2023-04-06T14:32:24;8.77;;;7.97;;
4313;SDS011;2170;48.794;9.182;2023-04-06T14:34:55;9.30;;;8.40;;
4313;SDS011;2170;48.794;9.182;2023-04-06T14:37:23;8.77;;;7.97;;
4313;SDS011;2170;48.794;9.182;2023-04-06T14:39:55;7.87;;;7.17;;
4313;SDS011;2170;48.794;9.182;2023-04-06T14:42:25;8.20;;;7.40;;
4313;SDS011;2170;48.794;9.182;2023-04-06T14:44:59;9.17;;;8.20;;
4313;SDS011;2170;48.794;9.182;2023-04-06T14:47:31;8.00;;;7.17;;
4313;SDS011;2170;48.794;9.182;2023-04-06T14:50:02;8.53;;;7.70;;
4313;SDS011;2170;48.794;9.182;2023-04-06T14:52:39;8.97;;;8.07;;
4313;SDS011;2170;48.794;9.182;2023-04-06T14:55:07;9.40;;;7.37;;
4313;SDS011;2170;48.794;9.182;2023-04-06T14:57:36;7.53;;;6.83;;
4313;SDS011;2170;48.794;9.182;2023-04-06T15:00:07;8.27;;;7.53;;
4313;SDS011;2170;48.794;9.182;2023-04-06T15:02:43;7.83;;;7.13;;
4313;SDS011;2170;48.794;9.182;2023-04-06T15:05:13;8.93;;;8.03;;
4313;SDS011;2170;48.794;9.182;2023-04-06T15:07:53;8.00;;;7.30;;
4313;SDS011;2170;48.794;9.182;2023-04-06T15:10:23;9.83;;;8.70;;
4313;SDS011;2170;48.794;9.182;2023-04-06T15:12:55;8.47;;;7.67;;
4313;SDS011;2170;48.794;9.182;2023-04-06T15:15:25;9.07;;;8.27;;
4313;SDS011;2170;48.794;9.182;2023-04-06T15:17:53;9.50;;;7.07;;
4313;SDS011;2170;48.794;9.182;2023-04-06T15:20:23;9.83;;;8.93;;
4313;SDS011;2170;48.794;9.182;2023-04-06T15:22:54;9.30;;;8.40;;
4313;SDS011;2170;48.794;9.182;2023-04-06T15:25:22;8.80;;;8.10;;
4313;SDS011;2170;48.794;9.182;2023-04-06T15:27:53;8.10;;;7.50;;
4313;SDS011;2170;48.794;9.182;2023-04-06T15:30:21;8.23;;;7.43;;
4313;SDS011;2170;48.794;9.182;2023-04-06T15:32:56;8.37;;;7.63;;
4313;SDS011;2170;48.794;9.182;2023-04-06T15:35:27;9.10;;;8.30;;
4313;SDS011;2170;48.794;9.182;2023-04-06T15:37:57;8.70;;;7.90;;
4313;SDS011;2170;48.794;9.182;2023-04-06T15:40:25;9.50;;;8.60;;
4313;SDS011;2170;48.794;9.182;2023-04-06T15:42:53;9.00;;;8.20;;
4313;SDS011;2170;48.794;9.182;2023-04-06T15:45:22;8.77;;;8.07;;
4313;SDS011;2170;48.794;9.182;2023-04-06T15:47:52;8.97;;;8.17;;
4313;SDS011;2170;48.794;9.182;2023-04-06T15:50:37;8.80;;;8.00;;
4313;SDS011;2170;48.794;9.182;2023-04-06T15:56:10;9.37;;;8.03;;
4313;SDS011;2170;48.794;9.182;2023-04-06T15:58:39;9.67;;;8.67;;
4313;SDS011;2170;48.794;9.182;2023-04-06T16:01:10;9.50;;;8.50;;
4313;SDS011;2170;48.794;9.182;2023-04-06T16:03:42;9.70;;;8.27;;
4313;SDS011;2170;48.794;9.182;2023-04-06T16:06:11;9.50;;;8.60;;
4313;SDS011;2170;48.794;9.182;2023-04-06T16:08:42;8.80;;;7.93;;
4313;SDS011;2170;48.794;9.182;2023-04-06T16:11:16;8.23;;;7.53;;
4313;SDS011;2170;48.794;9.182;2023-04-06T16:13:45;8.23;;;7.43;;
4313;SDS011;2170;48.794;9.182;2023-04-06T16:16:14;8.30;;;7.43;;
4313;SDS011;2170;48.794;9.182;2023-04-06T16:18:54;8.03;;;7.33;;
4313;SDS011;2170;48.794;9.182;2023-04-06T16:21:32;9.23;;;8.40;;
4313;SDS011;2170;48.794;9.182;2023-04-06T16:24:16;8.63;;;7.83;;
4313;SDS011;2170;48.794;9.182;2023-04-06T16:27:03;9.10;;;8.20;;
4313;SDS011;2170;48.794;9.182;2023-04-06T16:29:33;9.73;;;8.20;;
4313;SDS011;2170;48.794;9.182;2023-04-06T16:34:45;8.13;;;7.40;;
4313;SDS011;2170;48.794;9.182;2023-04-06T16:37:17;9.70;;;8.80;;
4313;SDS011;2170;48.794;9.182;2023-04-06T16:39:46;10.80;;;9.70;;
4313;SDS011;2170;48.794;9.182;2023-04-06T16:42:20;9.80;;;8.90;;
4313;SDS011;2170;48.794;9.182;2023-04-06T16:44:49;8.23;;;7.53;;
4313;SDS011;2170;48.794;9.182;2023-04-06T16:47:17;11.20;;;8.73;;
4313;SDS011;2170;48.794;9.182;2023-04-06T16:49:51;10.50;;;9.40;;
4313;SDS011;2170;48.794;9.182;2023-04-06T16:52:22;12.00;;;9.30;;
4313;SDS011;2170;48.794;9.182;2023-04-06T16:54:53;12.77;;;11.53;;
4313;SDS011;2170;48.794;9.182;2023-04-06T16:57:22;11.90;;;10.70;;
4313;SDS011;2170;48.794;9.182;2023-04-06T16:59:56;11.70;;;10.47;;
4313;SDS011;2170;48.794;9.182;2023-04-06T17:02:24;12.57;;;10.60;;
4313;SDS011;2170;48.794;9.182;2023-04-06T17:04:53;12.40;;;11.30;;
4313;SDS011;2170;48.794;9.182;2023-04-06T17:07:23;11.77;;;10.67;;
4313;SDS011;2170;48.794;9.182;2023-04-06T17:09:58;11.23;;;10.10;;
4313;SDS011;2170;48.794;9.182;2023-04-06T17:12:31;10.63;;;9.60;;
4313;SDS011;2170;48.794;9.182;2023-04-06T17:15:16;12.33;;;9.33;;
4313;SDS011;2170;48.794;9.182;2023-04-06T17:18:01;10.10;;;9.07;;
4313;SDS011;2170;48.794;9.182;2023-04-06T17:20:42;10.40;;;9.07;;
4313;SDS011;2170;48.794;9.182;2023-04-06T17:23:14;9.13;;;8.23;;
4313;SDS011;2170;48.794;9.182;2023-04-06T17:26:05;8.63;;;7.83;;
4313;SDS011;2170;48.794;9.182;2023-04-06T17:29:00;9.17;;;7.30;;
4313;SDS011;2170;48.794;9.182;2023-04-06T17:31:44;10.20;;;7.50;;
4313;SDS011;2170;48.794;9.182;2023-04-06T17:34:33;8.07;;;7.27;;